sensor_id;sensor_type;location;lat;lon;timestamp;P1;durP1;ratioP1;P2;durP2;ratioP2
61756;SDS011;57225;61.460;24.060;2024-02-26T00:02:28;25.83;;;12.88;;
61756;SDS011;57225;61.460;24.060;2024-02-26T00:05:12;26.13;;;12.43;;
61756;SDS011;57225;61.460;24.060;2024-02-26T00:07:57;27.83;;;13.10;;
61756;SDS011;57225;61.460;24.060;2024-02-26T00:10:41;21.58;;;12.38;;
61756;SDS011;57225;61.460;24.060;2024-02-26T00:13:26;23.95;;;12.75;;
61756;SDS011;57225;61.460;24.060;2024-02-26T00:16:10;24.55;;;13.07;;
61756;SDS011;57225;61.460;24.060;2024-02-26T00:18:55;31.23;;;13.80;;
61756;SDS011;57225;61.460;24.060;2024-02-26T00:21:40;26.55;;;14.20;;
61756;SDS011;57225;61.460;24.060;2024-02-26T00:24:27;25.30;;;13.73;;
61756;SDS011;57225;61.460;24.060;2024-02-26T00:27:12;22.83;;;13.30;;
61756;SDS011;57225;61.460;24.060;2024-02-26T00:29:56;24.00;;;13.70;;
61756;SDS011;57225;61.460;24.060;2024-02-26T00:32:41;22.33;;;13.13;;
61756;SDS011;57225;61.460;24.060;2024-02-26T00:35:25;24.70;;;13.57;;
61756;SDS011;57225;61.460;24.060;2024-02-26T00:38:10;28.48;;;14.95;;
61756;SDS011;57225;61.460;24.060;2024-02-26T00:40:54;25.67;;;13.68;;
61756;SDS011;57225;61.460;24.060;2024-02-26T00:43:39;22.95;;;12.75;;
61756;SDS011;57225;61.460;24.060;2024-02-26T00:46:26;25.45;;;13.73;;
61756;SDS011;57225;61.460;24.060;2024-02-26T00:49:10;24.90;;;14.23;;
61756;SDS011;57225;61.460;24.060;2024-02-26T00:51:55;24.73;;;14.13;;
61756;SDS011;57225;61.460;24.060;2024-02-26T00:54:39;27.13;;;14.10;;
61756;SDS011;57225;61.460;24.060;2024-02-26T00:57:24;23.77;;;13.35;;
61756;SDS011;57225;61.460;24.060;2024-02-26T01:00:08;26.65;;;13.40;;
61756;SDS011;57225;61.460;24.060;2024-02-26T01:02:53;25.13;;;13.00;;
61756;SDS011;57225;61.460;24.060;2024-02-26T01:05:37;25.85;;;13.00;;
61756;SDS011;57225;61.460;24.060;2024-02-26T01:08:22;26.48;;;13.50;;
61756;SDS011;57225;61.460;24.060;2024-02-26T01:11:06;25.10;;;13.25;;
61756;SDS011;57225;61.460;24.060;2024-02-26T01:13:51;25.98;;;14.07;;
61756;SDS011;57225;61.460;24.060;2024-02-26T01:16:40;25.15;;;14.25;;
61756;SDS011;57225;61.460;24.060;2024-02-26T01:19:24;24.20;;;13.82;;
61756;SDS011;57225;61.460;24.060;2024-02-26T01:22:09;25.00;;;14.15;;
61756;SDS011;57225;61.460;24.060;2024-02-26T01:25:06;26.52;;;14.00;;
61756;SDS011;57225;61.460;24.060;2024-02-26T01:27:51;22.85;;;13.63;;
61756;SDS011;57225;61.460;24.060;2024-02-26T01:30:36;26.95;;;13.70;;
61756;SDS011;57225;61.460;24.060;2024-02-26T01:33:21;21.30;;;12.75;;
61756;SDS011;57225;61.460;24.060;2024-02-26T01:36:05;22.90;;;12.60;;
61756;SDS011;57225;61.460;24.060;2024-02-26T01:38:49;23.10;;;13.35;;
61756;SDS011;57225;61.460;24.060;2024-02-26T01:41:34;24.45;;;13.57;;
61756;SDS011;57225;61.460;24.060;2024-02-26T01:44:18;24.15;;;14.48;;
61756;SDS011;57225;61.460;24.060;2024-02-26T01:47:03;29.83;;;14.13;;
61756;SDS011;57225;61.460;24.060;2024-02-26T01:49:48;25.58;;;14.20;;
61756;SDS011;57225;61.460;24.060;2024-02-26T01:52:33;25.80;;;13.30;;
61756;SDS011;57225;61.460;24.060;2024-02-26T01:55:19;25.55;;;13.07;;
61756;SDS011;57225;61.460;24.060;2024-02-26T01:58:04;26.90;;;13.88;;
61756;SDS011;57225;61.460;24.060;2024-02-26T02:22:19;29.92;;;14.90;;
61756;SDS011;57225;61.460;24.060;2024-02-26T02:25:07;33.83;;;18.63;;
61756;SDS011;57225;61.460;24.060;2024-02-26T02:27:52;36.97;;;16.50;;
61756;SDS011;57225;61.460;24.060;2024-02-26T02:30:38;34.15;;;16.05;;
61756;SDS011;57225;61.460;24.060;2024-02-26T02:33:23;29.45;;;16.00;;
61756;SDS011;57225;61.460;24.060;2024-02-26T02:36:09;30.15;;;15.70;;
61756;SDS011;57225;61.460;24.060;2024-02-26T02:38:55;30.90;;;16.10;;
61756;SDS011;57225;61.460;24.060;2024-02-26T02:41:39;31.60;;;16.30;;
61756;SDS011;57225;61.460;24.060;2024-02-26T02:44:24;32.03;;;16.67;;
61756;SDS011;57225;61.460;24.060;2024-02-26T02:47:08;27.55;;;14.30;;
61756;SDS011;57225;61.460;24.060;2024-02-26T02:49:53;28.90;;;15.43;;
61756;SDS011;57225;61.460;24.060;2024-02-26T02:52:37;27.10;;;14.88;;
61756;SDS011;57225;61.460;24.060;2024-02-26T02:55:22;27.95;;;14.23;;
61756;SDS011;57225;61.460;24.060;2024-02-26T02:58:06;25.55;;;13.73;;
61756;SDS011;57225;61.460;24.060;2024-02-26T03:00:51;25.42;;;14.38;;
61756;SDS011;57225;61.460;24.060;2024-02-26T03:03:35;26.73;;;13.82;;
61756;SDS011;57225;61.460;24.060;2024-02-26T03:06:21;23.15;;;13.20;;
61756;SDS011;57225;61.460;24.060;2024-02-26T03:09:05;26.80;;;13.70;;
61756;SDS011;57225;61.460;24.060;2024-02-26T03:11:50;29.67;;;14.50;;
61756;SDS011;57225;61.460;24.060;2024-02-26T03:14:34;25.42;;;13.60;;
61756;SDS011;57225;61.460;24.060;2024-02-26T03:17:18;25.52;;;13.50;;
61756;SDS011;57225;61.460;24.060;2024-02-26T03:20:04;24.65;;;13.70;;
61756;SDS011;57225;61.460;24.060;2024-02-26T03:22:49;24.85;;;12.70;;
61756;SDS011;57225;61.460;24.060;2024-02-26T03:25:33;26.02;;;14.85;;
61756;SDS011;57225;61.460;24.060;2024-02-26T03:28:18;28.45;;;14.68;;
61756;SDS011;57225;61.460;24.060;2024-02-26T03:31:02;27.70;;;14.02;;
61756;SDS011;57225;61.460;24.060;2024-02-26T03:33:47;25.33;;;13.77;;
61756;SDS011;57225;61.460;24.060;2024-02-26T03:36:31;26.92;;;13.07;;
61756;SDS011;57225;61.460;24.060;2024-02-26T03:39:16;25.60;;;14.18;;
61756;SDS011;57225;61.460;24.060;2024-02-26T03:42:00;32.90;;;14.90;;
61756;SDS011;57225;61.460;24.060;2024-02-26T03:44:45;26.02;;;13.52;;
61756;SDS011;57225;61.460;24.060;2024-02-26T03:47:29;24.60;;;14.05;;
61756;SDS011;57225;61.460;24.060;2024-02-26T03:50:14;31.15;;;14.80;;
61756;SDS011;57225;61.460;24.060;2024-02-26T03:52:58;28.20;;;14.25;;
61756;SDS011;57225;61.460;24.060;2024-02-26T03:55:43;30.48;;;15.63;;
61756;SDS011;57225;61.460;24.060;2024-02-26T03:58:28;28.15;;;13.40;;
61756;SDS011;57225;61.460;24.060;2024-02-26T04:01:12;25.15;;;12.38;;
61756;SDS011;57225;61.460;24.060;2024-02-26T04:03:57;28.10;;;13.50;;
61756;SDS011;57225;61.460;24.060;2024-02-26T04:06:47;23.88;;;13.48;;
61756;SDS011;57225;61.460;24.060;2024-02-26T04:09:32;24.45;;;13.35;;
61756;SDS011;57225;61.460;24.060;2024-02-26T04:12:17;30.73;;;13.88;;
61756;SDS011;57225;61.460;24.060;2024-02-26T04:15:02;22.58;;;12.13;;
61756;SDS011;57225;61.460;24.060;2024-02-26T04:17:47;29.45;;;13.82;;
61756;SDS011;57225;61.460;24.060;2024-02-26T04:20:31;27.08;;;13.80;;
61756;SDS011;57225;61.460;24.060;2024-02-26T04:23:15;34.88;;;15.50;;
61756;SDS011;57225;61.460;24.060;2024-02-26T04:26:00;30.08;;;14.82;;
61756;SDS011;57225;61.460;24.060;2024-02-26T04:28:44;26.05;;;13.95;;
61756;SDS011;57225;61.460;24.060;2024-02-26T04:31:29;26.58;;;13.80;;
61756;SDS011;57225;61.460;24.060;2024-02-26T04:34:15;27.23;;;14.02;;
61756;SDS011;57225;61.460;24.060;2024-02-26T04:36:59;29.33;;;14.80;;
61756;SDS011;57225;61.460;24.060;2024-02-26T04:39:44;30.88;;;15.25;;
61756;SDS011;57225;61.460;24.060;2024-02-26T04:42:29;29.55;;;14.30;;
61756;SDS011;57225;61.460;24.060;2024-02-26T04:45:14;33.00;;;14.32;;
61756;SDS011;57225;61.460;24.060;2024-02-26T04:47:59;30.25;;;14.15;;
61756;SDS011;57225;61.460;24.060;2024-02-26T04:50:43;37.00;;;16.13;;
61756;SDS011;57225;61.460;24.060;2024-02-26T04:53:31;33.33;;;14.25;;
61756;SDS011;57225;61.460;24.060;2024-02-26T04:56:15;33.97;;;15.48;;
61756;SDS011;57225;61.460;24.060;2024-02-26T04:59:00;41.60;;;14.77;;
61756;SDS011;57225;61.460;24.060;2024-02-26T05:01:44;57.92;;;15.85;;
61756;SDS011;57225;61.460;24.060;2024-02-26T05:04:29;33.95;;;15.25;;
61756;SDS011;57225;61.460;24.060;2024-02-26T05:07:13;29.17;;;14.25;;
61756;SDS011;57225;61.460;24.060;2024-02-26T05:09:58;40.78;;;14.27;;
61756;SDS011;57225;61.460;24.060;2024-02-26T05:12:43;37.25;;;14.05;;
61756;SDS011;57225;61.460;24.060;2024-02-26T05:15:27;31.10;;;13.63;;
61756;SDS011;57225;61.460;24.060;2024-02-26T05:18:12;66.05;;;15.45;;
61756;SDS011;57225;61.460;24.060;2024-02-26T05:20:57;104.20;;;14.70;;
61756;SDS011;57225;61.460;24.060;2024-02-26T05:23:41;80.63;;;14.57;;
61756;SDS011;57225;61.460;24.060;2024-02-26T05:26:27;51.80;;;12.40;;
61756;SDS011;57225;61.460;24.060;2024-02-26T05:29:12;103.68;;;14.55;;
61756;SDS011;57225;61.460;24.060;2024-02-26T05:31:56;27.92;;;12.43;;
61756;SDS011;57225;61.460;24.060;2024-02-26T05:34:40;42.83;;;12.13;;
61756;SDS011;57225;61.460;24.060;2024-02-26T05:37:25;31.48;;;12.73;;
61756;SDS011;57225;61.460;24.060;2024-02-26T05:40:10;39.83;;;11.82;;
61756;SDS011;57225;61.460;24.060;2024-02-26T05:42:55;59.03;;;12.45;;
61756;SDS011;57225;61.460;24.060;2024-02-26T05:45:39;50.65;;;12.00;;
61756;SDS011;57225;61.460;24.060;2024-02-26T05:48:23;22.83;;;10.70;;
61756;SDS011;57225;61.460;24.060;2024-02-26T05:51:08;51.47;;;12.32;;
61756;SDS011;57225;61.460;24.060;2024-02-26T05:53:53;57.67;;;12.60;;
61756;SDS011;57225;61.460;24.060;2024-02-26T05:56:38;51.10;;;12.65;;
61756;SDS011;57225;61.460;24.060;2024-02-26T05:59:23;26.20;;;11.68;;
61756;SDS011;57225;61.460;24.060;2024-02-26T06:02:07;42.65;;;11.93;;
61756;SDS011;57225;61.460;24.060;2024-02-26T06:04:51;37.90;;;11.07;;
61756;SDS011;57225;61.460;24.060;2024-02-26T06:07:36;27.17;;;11.52;;
61756;SDS011;57225;61.460;24.060;2024-02-26T06:10:21;90.57;;;12.55;;
61756;SDS011;57225;61.460;24.060;2024-02-26T06:13:05;71.85;;;11.57;;
61756;SDS011;57225;61.460;24.060;2024-02-26T06:15:50;75.30;;;11.60;;
61756;SDS011;57225;61.460;24.060;2024-02-26T06:18:34;180.73;;;13.55;;
61756;SDS011;57225;61.460;24.060;2024-02-26T06:21:19;152.60;;;11.02;;
61756;SDS011;57225;61.460;24.060;2024-02-26T06:24:03;185.35;;;14.30;;
61756;SDS011;57225;61.460;24.060;2024-02-26T06:26:48;161.85;;;12.65;;
61756;SDS011;57225;61.460;24.060;2024-02-26T06:29:32;45.15;;;10.43;;
61756;SDS011;57225;61.460;24.060;2024-02-26T06:32:17;64.22;;;8.90;;
61756;SDS011;57225;61.460;24.060;2024-02-26T06:35:01;59.83;;;10.35;;
61756;SDS011;57225;61.460;24.060;2024-02-26T06:37:50;19.05;;;9.02;;
61756;SDS011;57225;61.460;24.060;2024-02-26T06:40:36;64.63;;;9.98;;
61756;SDS011;57225;61.460;24.060;2024-02-26T06:43:21;41.17;;;10.20;;
61756;SDS011;57225;61.460;24.060;2024-02-26T06:46:05;143.35;;;10.10;;
61756;SDS011;57225;61.460;24.060;2024-02-26T06:48:51;66.35;;;9.13;;
61756;SDS011;57225;61.460;24.060;2024-02-26T06:51:36;73.15;;;9.27;;
61756;SDS011;57225;61.460;24.060;2024-02-26T06:54:20;16.48;;;8.82;;
61756;SDS011;57225;61.460;24.060;2024-02-26T06:57:05;57.15;;;9.43;;
61756;SDS011;57225;61.460;24.060;2024-02-26T06:59:49;51.22;;;10.27;;
61756;SDS011;57225;61.460;24.060;2024-02-26T07:02:34;40.00;;;9.23;;
61756;SDS011;57225;61.460;24.060;2024-02-26T07:05:18;29.13;;;9.02;;
61756;SDS011;57225;61.460;24.060;2024-02-26T07:08:03;52.80;;;8.57;;
61756;SDS011;57225;61.460;24.060;2024-02-26T07:10:47;28.52;;;9.13;;
61756;SDS011;57225;61.460;24.060;2024-02-26T07:13:32;17.10;;;7.95;;
61756;SDS011;57225;61.460;24.060;2024-02-26T07:16:16;15.52;;;8.30;;
61756;SDS011;57225;61.460;24.060;2024-02-26T07:19:01;35.80;;;17.60;;
61756;SDS011;57225;61.460;24.060;2024-02-26T07:21:46;45.25;;;13.50;;
61756;SDS011;57225;61.460;24.060;2024-02-26T07:24:45;13.98;;;8.27;;
61756;SDS011;57225;61.460;24.060;2024-02-26T07:27:30;24.80;;;8.57;;
61756;SDS011;57225;61.460;24.060;2024-02-26T07:30:15;16.05;;;8.45;;
61756;SDS011;57225;61.460;24.060;2024-02-26T07:33:00;28.55;;;9.43;;
61756;SDS011;57225;61.460;24.060;2024-02-26T07:35:44;21.77;;;8.55;;
61756;SDS011;57225;61.460;24.060;2024-02-26T07:38:28;58.90;;;8.18;;
61756;SDS011;57225;61.460;24.060;2024-02-26T07:41:13;14.10;;;7.03;;
61756;SDS011;57225;61.460;24.060;2024-02-26T07:43:57;58.70;;;8.20;;
61756;SDS011;57225;61.460;24.060;2024-02-26T07:46:42;21.40;;;7.30;;
61756;SDS011;57225;61.460;24.060;2024-02-26T07:49:26;20.70;;;7.47;;
61756;SDS011;57225;61.460;24.060;2024-02-26T07:52:11;14.57;;;8.35;;
61756;SDS011;57225;61.460;24.060;2024-02-26T07:54:55;70.82;;;9.02;;
61756;SDS011;57225;61.460;24.060;2024-02-26T07:57:43;48.05;;;10.27;;
61756;SDS011;57225;61.460;24.060;2024-02-26T08:00:27;25.40;;;7.68;;
61756;SDS011;57225;61.460;24.060;2024-02-26T08:03:12;42.08;;;7.10;;
61756;SDS011;57225;61.460;24.060;2024-02-26T08:05:59;22.48;;;6.90;;
61756;SDS011;57225;61.460;24.060;2024-02-26T08:08:44;13.13;;;7.13;;
61756;SDS011;57225;61.460;24.060;2024-02-26T08:11:28;48.00;;;7.93;;
61756;SDS011;57225;61.460;24.060;2024-02-26T08:14:13;55.90;;;7.82;;
61756;SDS011;57225;61.460;24.060;2024-02-26T08:16:57;71.82;;;8.50;;
61756;SDS011;57225;61.460;24.060;2024-02-26T08:19:42;71.82;;;7.60;;
61756;SDS011;57225;61.460;24.060;2024-02-26T08:22:26;52.78;;;6.68;;
61756;SDS011;57225;61.460;24.060;2024-02-26T08:25:11;92.10;;;7.57;;
61756;SDS011;57225;61.460;24.060;2024-02-26T08:27:55;12.93;;;6.22;;
61756;SDS011;57225;61.460;24.060;2024-02-26T08:30:40;46.17;;;7.75;;
61756;SDS011;57225;61.460;24.060;2024-02-26T08:33:24;56.97;;;7.82;;
61756;SDS011;57225;61.460;24.060;2024-02-26T08:36:09;10.95;;;6.38;;
61756;SDS011;57225;61.460;24.060;2024-02-26T08:38:55;22.13;;;7.38;;
61756;SDS011;57225;61.460;24.060;2024-02-26T08:41:39;56.35;;;7.55;;
61756;SDS011;57225;61.460;24.060;2024-02-26T08:44:24;27.65;;;7.63;;
61756;SDS011;57225;61.460;24.060;2024-02-26T08:47:10;21.83;;;6.35;;
61756;SDS011;57225;61.460;24.060;2024-02-26T08:49:54;47.50;;;5.82;;
61756;SDS011;57225;61.460;24.060;2024-02-26T08:52:39;50.45;;;6.25;;
61756;SDS011;57225;61.460;24.060;2024-02-26T08:55:24;55.45;;;6.60;;
61756;SDS011;57225;61.460;24.060;2024-02-26T08:58:08;29.05;;;5.78;;
61756;SDS011;57225;61.460;24.060;2024-02-26T09:00:53;36.35;;;6.72;;
61756;SDS011;57225;61.460;24.060;2024-02-26T09:03:37;9.48;;;5.40;;
61756;SDS011;57225;61.460;24.060;2024-02-26T09:06:22;36.63;;;5.57;;
61756;SDS011;57225;61.460;24.060;2024-02-26T09:09:06;13.20;;;5.53;;
61756;SDS011;57225;61.460;24.060;2024-02-26T09:11:51;39.28;;;5.95;;
61756;SDS011;57225;61.460;24.060;2024-02-26T09:14:35;37.60;;;6.40;;
61756;SDS011;57225;61.460;24.060;2024-02-26T09:17:20;11.55;;;6.13;;
61756;SDS011;57225;61.460;24.060;2024-02-26T09:20:05;9.75;;;4.95;;
61756;SDS011;57225;61.460;24.060;2024-02-26T09:22:50;12.52;;;5.93;;
61756;SDS011;57225;61.460;24.060;2024-02-26T09:25:35;15.25;;;5.32;;
61756;SDS011;57225;61.460;24.060;2024-02-26T09:28:19;29.08;;;6.38;;
61756;SDS011;57225;61.460;24.060;2024-02-26T09:31:04;16.60;;;5.40;;
61756;SDS011;57225;61.460;24.060;2024-02-26T09:33:50;12.50;;;5.55;;
61756;SDS011;57225;61.460;24.060;2024-02-26T09:36:34;11.05;;;5.25;;
61756;SDS011;57225;61.460;24.060;2024-02-26T09:39:19;18.48;;;5.88;;
61756;SDS011;57225;61.460;24.060;2024-02-26T09:42:05;10.63;;;5.32;;
61756;SDS011;57225;61.460;24.060;2024-02-26T09:44:54;11.77;;;5.30;;
61756;SDS011;57225;61.460;24.060;2024-02-26T09:47:41;12.83;;;5.63;;
61756;SDS011;57225;61.460;24.060;2024-02-26T09:50:26;9.23;;;5.57;;
61756;SDS011;57225;61.460;24.060;2024-02-26T09:53:11;6.95;;;4.30;;
61756;SDS011;57225;61.460;24.060;2024-02-26T09:55:57;10.75;;;5.20;;
61756;SDS011;57225;61.460;24.060;2024-02-26T09:58:42;13.82;;;5.10;;
61756;SDS011;57225;61.460;24.060;2024-02-26T10:01:29;12.55;;;5.43;;
61756;SDS011;57225;61.460;24.060;2024-02-26T10:04:17;8.35;;;4.95;;
61756;SDS011;57225;61.460;24.060;2024-02-26T10:07:02;10.65;;;4.22;;
61756;SDS011;57225;61.460;24.060;2024-02-26T10:09:47;6.78;;;4.30;;
61756;SDS011;57225;61.460;24.060;2024-02-26T10:12:32;6.10;;;4.10;;
61756;SDS011;57225;61.460;24.060;2024-02-26T10:15:16;7.60;;;4.40;;
61756;SDS011;57225;61.460;24.060;2024-02-26T10:18:04;9.02;;;4.53;;
61756;SDS011;57225;61.460;24.060;2024-02-26T10:20:59;7.15;;;4.10;;
61756;SDS011;57225;61.460;24.060;2024-02-26T10:23:45;8.02;;;4.95;;
61756;SDS011;57225;61.460;24.060;2024-02-26T10:26:31;7.57;;;4.80;;
61756;SDS011;57225;61.460;24.060;2024-02-26T10:29:15;9.10;;;4.40;;
61756;SDS011;57225;61.460;24.060;2024-02-26T10:32:00;8.43;;;4.68;;
61756;SDS011;57225;61.460;24.060;2024-02-26T10:34:45;7.57;;;4.40;;
61756;SDS011;57225;61.460;24.060;2024-02-26T10:37:29;8.27;;;4.63;;
61756;SDS011;57225;61.460;24.060;2024-02-26T10:40:14;7.75;;;4.60;;
61756;SDS011;57225;61.460;24.060;2024-02-26T10:42:59;9.85;;;4.65;;
61756;SDS011;57225;61.460;24.060;2024-02-26T10:45:45;8.52;;;4.88;;
61756;SDS011;57225;61.460;24.060;2024-02-26T10:48:29;8.00;;;5.00;;
61756;SDS011;57225;61.460;24.060;2024-02-26T10:51:13;7.85;;;4.40;;
61756;SDS011;57225;61.460;24.060;2024-02-26T10:53:59;10.07;;;5.03;;
61756;SDS011;57225;61.460;24.060;2024-02-26T10:56:48;10.55;;;5.10;;
61756;SDS011;57225;61.460;24.060;2024-02-26T10:59:34;8.93;;;5.00;;
61756;SDS011;57225;61.460;24.060;2024-02-26T11:02:20;9.98;;;5.60;;
61756;SDS011;57225;61.460;24.060;2024-02-26T11:05:05;11.43;;;5.22;;
61756;SDS011;57225;61.460;24.060;2024-02-26T11:07:51;12.85;;;5.80;;
61756;SDS011;57225;61.460;24.060;2024-02-26T11:10:36;9.75;;;5.60;;
61756;SDS011;57225;61.460;24.060;2024-02-26T11:13:22;10.00;;;5.43;;
61756;SDS011;57225;61.460;24.060;2024-02-26T11:16:11;10.13;;;5.03;;
61756;SDS011;57225;61.460;24.060;2024-02-26T11:18:55;14.25;;;5.90;;
61756;SDS011;57225;61.460;24.060;2024-02-26T11:21:42;13.55;;;5.93;;
61756;SDS011;57225;61.460;24.060;2024-02-26T11:24:26;12.95;;;6.30;;
61756;SDS011;57225;61.460;24.060;2024-02-26T11:27:11;13.27;;;5.70;;
61756;SDS011;57225;61.460;24.060;2024-02-26T11:29:56;12.60;;;5.35;;
61756;SDS011;57225;61.460;24.060;2024-02-26T11:32:44;10.73;;;5.00;;
61756;SDS011;57225;61.460;24.060;2024-02-26T11:35:30;10.95;;;5.22;;
61756;SDS011;57225;61.460;24.060;2024-02-26T11:38:19;10.43;;;5.35;;
61756;SDS011;57225;61.460;24.060;2024-02-26T11:41:05;9.13;;;5.03;;
61756;SDS011;57225;61.460;24.060;2024-02-26T11:44:00;7.03;;;3.92;;
61756;SDS011;57225;61.460;24.060;2024-02-26T11:46:45;6.10;;;3.85;;
61756;SDS011;57225;61.460;24.060;2024-02-26T11:49:30;8.02;;;4.65;;
61756;SDS011;57225;61.460;24.060;2024-02-26T11:52:16;11.88;;;5.40;;
61756;SDS011;57225;61.460;24.060;2024-02-26T11:55:01;8.85;;;5.05;;
61756;SDS011;57225;61.460;24.060;2024-02-26T11:57:45;10.52;;;4.63;;
61756;SDS011;57225;61.460;24.060;2024-02-26T12:00:30;14.55;;;5.32;;
61756;SDS011;57225;61.460;24.060;2024-02-26T12:03:16;13.32;;;5.85;;
61756;SDS011;57225;61.460;24.060;2024-02-26T12:06:01;11.10;;;5.90;;
61756;SDS011;57225;61.460;24.060;2024-02-26T12:08:45;12.25;;;5.72;;
61756;SDS011;57225;61.460;24.060;2024-02-26T12:11:30;15.93;;;7.05;;
61756;SDS011;57225;61.460;24.060;2024-02-26T12:14:15;14.48;;;5.88;;
61756;SDS011;57225;61.460;24.060;2024-02-26T12:17:02;13.95;;;5.95;;
61756;SDS011;57225;61.460;24.060;2024-02-26T12:19:51;11.15;;;5.55;;
61756;SDS011;57225;61.460;24.060;2024-02-26T12:22:38;11.57;;;5.50;;
61756;SDS011;57225;61.460;24.060;2024-02-26T12:25:25;11.65;;;6.18;;
61756;SDS011;57225;61.460;24.060;2024-02-26T12:28:11;18.85;;;6.88;;
61756;SDS011;57225;61.460;24.060;2024-02-26T12:30:56;17.23;;;7.32;;
61756;SDS011;57225;61.460;24.060;2024-02-26T12:33:43;17.20;;;8.32;;
61756;SDS011;57225;61.460;24.060;2024-02-26T12:36:27;13.18;;;6.75;;
61756;SDS011;57225;61.460;24.060;2024-02-26T12:39:12;18.65;;;7.63;;
61756;SDS011;57225;61.460;24.060;2024-02-26T12:41:57;16.38;;;7.60;;
61756;SDS011;57225;61.460;24.060;2024-02-26T12:44:44;15.93;;;7.15;;
61756;SDS011;57225;61.460;24.060;2024-02-26T12:47:30;15.95;;;7.25;;
61756;SDS011;57225;61.460;24.060;2024-02-26T12:50:15;18.40;;;7.65;;
61756;SDS011;57225;61.460;24.060;2024-02-26T12:52:59;17.40;;;7.07;;
61756;SDS011;57225;61.460;24.060;2024-02-26T12:55:44;18.25;;;7.72;;
61756;SDS011;57225;61.460;24.060;2024-02-26T12:58:28;18.52;;;7.90;;
61756;SDS011;57225;61.460;24.060;2024-02-26T13:01:15;15.60;;;7.18;;
61756;SDS011;57225;61.460;24.060;2024-02-26T13:04:01;22.85;;;8.00;;
61756;SDS011;57225;61.460;24.060;2024-02-26T13:06:50;20.25;;;8.02;;
61756;SDS011;57225;61.460;24.060;2024-02-26T13:09:34;16.90;;;6.50;;
61756;SDS011;57225;61.460;24.060;2024-02-26T13:12:19;10.98;;;5.50;;
61756;SDS011;57225;61.460;24.060;2024-02-26T13:15:04;9.82;;;5.03;;
61756;SDS011;57225;61.460;24.060;2024-02-26T13:17:49;9.85;;;5.18;;
61756;SDS011;57225;61.460;24.060;2024-02-26T13:20:33;14.32;;;6.20;;
61756;SDS011;57225;61.460;24.060;2024-02-26T13:23:19;10.52;;;5.78;;
61756;SDS011;57225;61.460;24.060;2024-02-26T13:26:04;17.25;;;6.53;;
61756;SDS011;57225;61.460;24.060;2024-02-26T13:28:48;12.23;;;5.95;;
61756;SDS011;57225;61.460;24.060;2024-02-26T13:31:43;13.00;;;6.22;;
61756;SDS011;57225;61.460;24.060;2024-02-26T13:34:28;11.07;;;6.15;;
61756;SDS011;57225;61.460;24.060;2024-02-26T13:37:14;14.43;;;6.32;;
61756;SDS011;57225;61.460;24.060;2024-02-26T13:39:59;13.82;;;6.63;;
61756;SDS011;57225;61.460;24.060;2024-02-26T13:42:43;11.60;;;5.72;;
61756;SDS011;57225;61.460;24.060;2024-02-26T13:45:28;12.38;;;6.68;;
61756;SDS011;57225;61.460;24.060;2024-02-26T13:48:13;13.82;;;6.45;;
61756;SDS011;57225;61.460;24.060;2024-02-26T13:50:58;13.52;;;6.55;;
61756;SDS011;57225;61.460;24.060;2024-02-26T13:53:42;13.95;;;6.53;;
61756;SDS011;57225;61.460;24.060;2024-02-26T13:56:27;17.10;;;7.50;;
61756;SDS011;57225;61.460;24.060;2024-02-26T13:59:11;12.45;;;6.00;;
61756;SDS011;57225;61.460;24.060;2024-02-26T14:01:56;15.60;;;6.97;;
61756;SDS011;57225;61.460;24.060;2024-02-26T14:04:40;13.82;;;6.75;;
61756;SDS011;57225;61.460;24.060;2024-02-26T14:07:25;15.88;;;7.82;;
61756;SDS011;57225;61.460;24.060;2024-02-26T14:10:11;10.80;;;5.88;;
61756;SDS011;57225;61.460;24.060;2024-02-26T14:12:56;12.68;;;6.13;;
61756;SDS011;57225;61.460;24.060;2024-02-26T14:15:41;10.82;;;6.32;;
61756;SDS011;57225;61.460;24.060;2024-02-26T14:18:25;12.13;;;6.10;;
61756;SDS011;57225;61.460;24.060;2024-02-26T14:21:10;21.05;;;6.90;;
61756;SDS011;57225;61.460;24.060;2024-02-26T14:23:55;12.93;;;6.72;;
61756;SDS011;57225;61.460;24.060;2024-02-26T14:26:40;16.83;;;6.97;;
61756;SDS011;57225;61.460;24.060;2024-02-26T14:29:24;15.23;;;7.13;;
61756;SDS011;57225;61.460;24.060;2024-02-26T14:32:09;13.82;;;7.10;;
61756;SDS011;57225;61.460;24.060;2024-02-26T14:34:56;13.63;;;6.80;;
61756;SDS011;57225;61.460;24.060;2024-02-26T14:37:40;13.07;;;6.97;;
61756;SDS011;57225;61.460;24.060;2024-02-26T14:40:25;14.95;;;7.47;;
61756;SDS011;57225;61.460;24.060;2024-02-26T14:43:09;12.82;;;6.57;;
61756;SDS011;57225;61.460;24.060;2024-02-26T14:45:54;14.05;;;6.97;;
61756;SDS011;57225;61.460;24.060;2024-02-26T14:48:39;11.60;;;6.28;;
61756;SDS011;57225;61.460;24.060;2024-02-26T14:51:23;13.98;;;7.03;;
61756;SDS011;57225;61.460;24.060;2024-02-26T14:54:08;12.40;;;6.18;;
61756;SDS011;57225;61.460;24.060;2024-02-26T14:56:53;12.63;;;6.03;;
61756;SDS011;57225;61.460;24.060;2024-02-26T14:59:38;12.25;;;5.65;;
61756;SDS011;57225;61.460;24.060;2024-02-26T15:02:22;12.43;;;6.15;;
61756;SDS011;57225;61.460;24.060;2024-02-26T15:05:07;11.13;;;5.88;;
61756;SDS011;57225;61.460;24.060;2024-02-26T15:07:53;12.98;;;6.50;;
61756;SDS011;57225;61.460;24.060;2024-02-26T15:10:38;10.93;;;5.88;;
61756;SDS011;57225;61.460;24.060;2024-02-26T15:13:22;11.95;;;6.30;;
61756;SDS011;57225;61.460;24.060;2024-02-26T15:16:06;15.10;;;6.32;;
61756;SDS011;57225;61.460;24.060;2024-02-26T15:18:51;11.30;;;6.15;;
61756;SDS011;57225;61.460;24.060;2024-02-26T15:21:42;12.20;;;5.88;;
61756;SDS011;57225;61.460;24.060;2024-02-26T15:24:27;9.13;;;5.43;;
61756;SDS011;57225;61.460;24.060;2024-02-26T15:27:11;11.65;;;5.88;;
61756;SDS011;57225;61.460;24.060;2024-02-26T15:29:56;13.13;;;6.90;;
61756;SDS011;57225;61.460;24.060;2024-02-26T15:32:42;11.85;;;6.13;;
61756;SDS011;57225;61.460;24.060;2024-02-26T15:35:27;12.95;;;7.20;;
61756;SDS011;57225;61.460;24.060;2024-02-26T15:38:12;13.20;;;6.97;;
61756;SDS011;57225;61.460;24.060;2024-02-26T15:40:59;14.80;;;7.28;;
61756;SDS011;57225;61.460;24.060;2024-02-26T15:43:44;13.57;;;7.10;;
61756;SDS011;57225;61.460;24.060;2024-02-26T15:46:28;17.92;;;7.25;;
61756;SDS011;57225;61.460;24.060;2024-02-26T15:49:13;15.85;;;7.80;;
61756;SDS011;57225;61.460;24.060;2024-02-26T15:51:57;14.68;;;7.25;;
61756;SDS011;57225;61.460;24.060;2024-02-26T15:54:42;20.00;;;8.55;;
61756;SDS011;57225;61.460;24.060;2024-02-26T15:57:27;19.23;;;8.43;;
61756;SDS011;57225;61.460;24.060;2024-02-26T16:00:12;23.77;;;9.20;;
61756;SDS011;57225;61.460;24.060;2024-02-26T16:02:57;20.42;;;9.05;;
61756;SDS011;57225;61.460;24.060;2024-02-26T16:05:41;22.38;;;9.85;;
61756;SDS011;57225;61.460;24.060;2024-02-26T16:08:26;22.33;;;9.60;;
61756;SDS011;57225;61.460;24.060;2024-02-26T16:11:11;28.38;;;11.80;;
61756;SDS011;57225;61.460;24.060;2024-02-26T16:17:13;22.63;;;9.07;;
61756;SDS011;57225;61.460;24.060;2024-02-26T16:20:02;25.10;;;9.82;;
61756;SDS011;57225;61.460;24.060;2024-02-26T16:22:48;19.35;;;8.93;;
61756;SDS011;57225;61.460;24.060;2024-02-26T16:25:32;24.02;;;9.07;;
61756;SDS011;57225;61.460;24.060;2024-02-26T16:28:18;24.88;;;9.77;;